Terminal Aerodrome Forecast
Issued by NWS Caribou, ME

Home | Current Version | Previous Version | Text Only | Print | Product List | Glossary On
Versions: 1 2 3 4 5 6 7 8 9 10 11 12 13 14
245
FTUS41 KCAR 260520
TAFCAR
TAF
KCAR 260520Z 2606/2706 13007KT 5SM -RA BR SCT012 BKN025
     FM260800 24006KT 4SM BR OVC015
     FM261500 28006KT P6SM VCSH BKN040
     FM261800 28006KT P6SM VCTS BKN040CB
     FM262200 28006KT P6SM BKN050=

USA.gov is the U.S. government's official web portal to all federal, state and local government web resources and services.